Time;durP1;ratioP1;P1;durP2;ratioP2;P2;SDS_P1;SDS_P2;PMS_P1;PMS_P2;Temp;Humidity;BMP_temperature;BMP_pressure;BME280_temperature;BME280_humidity;BME280_pressure;Samples;Min_cycle;Max_cycle;Signal;HPM_P1;HPM_P2
2022/07/25 00:01:02;;;;;;;;;13.00;9.33;;;;;;;;5038432;28;45298;-75
2022/07/25 00:03:28;;;;;;;;;25.67;22.00;;;;;;;;5037843;28;45599;-75
2022/07/25 00:05:53;;;;;;;;;21.00;18.00;;;;;;;;5037929;28;45476;-75
2022/07/25 00:08:18;;;;;;;;;17.33;13.33;;;;;;;;5038215;28;45370;-75
2022/07/25 00:10:43;;;;;;;;;13.67;12.00;;;;;;;;5038283;28;45305;-75
2022/07/25 00:13:09;;;;;;;;;13.00;10.67;;;;;;;;5037879;28;47074;-75
2022/07/25 00:15:34;;;;;;;;;18.00;15.00;;;;;;;;5037937;28;45473;-75
2022/07/25 00:17:59;;;;;;;;;26.33;20.67;;;;;;;;5037836;28;45302;-75
2022/07/25 00:20:24;;;;;;;;;24.33;20.33;;;;;;;;5038013;28;45317;-75
2022/07/25 00:22:49;;;;;;;;;19.33;12.67;;;;;;;;5037669;28;47422;-75
2022/07/25 00:25:15;;;;;;;;;21.33;18.33;;;;;;;;5037839;28;45298;-75
2022/07/25 00:27:40;;;;;;;;;8.00;7.67;;;;;;;;5037585;28;45325;-75
2022/07/25 00:30:05;;;;;;;;;20.00;16.67;;;;;;;;5037681;28;45406;-75
2022/07/25 00:32:31;;;;;;;;;19.67;16.33;;;;;;;;5037566;28;45476;-75
2022/07/25 00:34:56;;;;;;;;;16.67;13.00;;;;;;;;5037664;28;45318;-76
2022/07/25 00:37:21;;;;;;;;;12.67;9.67;;;;;;;;5037662;28;45529;-75
2022/07/25 00:39:47;;;;;;;;;14.67;8.00;;;;;;;;5037899;28;45411;-75
2022/07/25 00:42:12;;;;;;;;;11.67;9.67;;;;;;;;5037439;28;45702;-75
2022/07/25 00:44:37;;;;;;;;;6.00;6.00;;;;;;;;5037511;28;45457;-76
2022/07/25 00:47:03;;;;;;;;;7.33;7.33;;;;;;;;5037592;28;45851;-75
2022/07/25 00:49:28;;;;;;;;;8.00;5.00;;;;;;;;5037681;28;45412;-75
2022/07/25 00:51:53;;;;;;;;;6.00;6.00;;;;;;;;5037558;28;46507;-75
2022/07/25 00:54:19;;;;;;;;;6.00;6.00;;;;;;;;5037457;28;45484;-75
2022/07/25 00:56:45;;;;;;;;;8.00;7.33;;;;;;;;5037694;28;45230;-76
2022/07/25 00:59:10;;;;;;;;;7.67;6.00;;;;;;;;5037513;28;45330;-75
2022/07/25 01:01:36;;;;;;;;;7.67;6.00;;;;;;;;5037126;28;46495;-75
2022/07/25 01:04:02;;;;;;;;;7.00;7.00;;;;;;;;5037167;28;45440;-75
2022/07/25 01:06:27;;;;;;;;;9.67;7.00;;;;;;;;5037163;28;45386;-75
2022/07/25 01:08:53;;;;;;;;;8.33;7.67;;;;;;;;5037980;28;45187;-75
2022/07/25 01:11:18;;;;;;;;;5.67;5.67;;;;;;;;5037167;28;45345;-75
2022/07/25 01:13:44;;;;;;;;;7.00;5.67;;;;;;;;5037328;28;45290;-76
2022/07/25 01:16:09;;;;;;;;;7.00;5.00;;;;;;;;5037318;28;45350;-75
2022/07/25 01:18:34;;;;;;;;;6.00;5.00;;;;;;;;5037216;28;45247;-75
2022/07/25 01:21:00;;;;;;;;;4.33;4.00;;;;;;;;5036786;28;46378;-76
2022/07/25 01:23:26;;;;;;;;;6.00;4.67;;;;;;;;5037103;28;45290;-75
2022/07/25 01:25:51;;;;;;;;;3.67;3.67;;;;;;;;5037219;28;45250;-73
2022/07/25 01:28:17;;;;;;;;;3.00;3.00;;;;;;;;5037215;28;45331;-73
2022/07/25 01:30:42;;;;;;;;;2.00;2.00;;;;;;;;5036867;28;47309;-74
2022/07/25 01:33:07;;;;;;;;;4.00;2.33;;;;;;;;5037012;28;45297;-76
2022/07/25 01:35:33;;;;;;;;;4.67;4.00;;;;;;;;5036966;28;45330;-75
2022/07/25 01:37:58;;;;;;;;;3.00;3.00;;;;;;;;5037331;28;45341;-74
2022/07/25 01:40:23;;;;;;;;;1.00;1.00;;;;;;;;5040329;28;46402;-74
2022/07/25 01:42:48;;;;;;;;;2.00;2.00;;;;;;;;5040430;28;45317;-74
2022/07/25 01:45:14;;;;;;;;;2.00;2.00;;;;;;;;5040436;28;45294;-75
2022/07/25 01:47:39;;;;;;;;;3.00;2.33;;;;;;;;5040563;28;45345;-74
2022/07/25 01:50:05;;;;;;;;;4.67;3.00;;;;;;;;5040151;28;46307;-76
2022/07/25 01:52:30;;;;;;;;;2.67;2.00;;;;;;;;5039956;28;45405;-76
2022/07/25 01:54:55;;;;;;;;;2.00;2.00;;;;;;;;5040437;28;45215;-75
2022/07/25 01:57:21;;;;;;;;;3.00;3.00;;;;;;;;5040372;28;45235;-73
2022/07/25 01:59:46;;;;;;;;;3.00;3.00;;;;;;;;5039849;28;46299;-76
2022/07/25 02:02:12;;;;;;;;;4.67;2.00;;;;;;;;5039919;28;45378;-75
2022/07/25 02:04:37;;;;;;;;;3.00;1.00;;;;;;;;5039997;28;45304;-74
2022/07/25 02:07:02;;;;;;;;;3.00;3.00;;;;;;;;5040342;28;45217;-76
2022/07/25 02:09:28;;;;;;;;;2.00;2.00;;;;;;;;5039889;28;45322;-75
2022/07/25 02:11:53;;;;;;;;;3.00;2.00;;;;;;;;5039995;28;45589;-74
2022/07/25 02:14:18;;;;;;;;;4.00;2.33;;;;;;;;5040307;28;45232;-75
2022/07/25 02:16:44;;;;;;;;;2.00;1.00;;;;;;;;5040083;28;45222;-74
2022/07/25 02:19:09;;;;;;;;;4.67;4.00;;;;;;;;5039497;28;46690;-75
2022/07/25 02:21:34;;;;;;;;;4.00;3.00;;;;;;;;5039910;28;45319;-75
2022/07/25 02:23:59;;;;;;;;;2.00;2.00;;;;;;;;5039806;28;45342;-74
2022/07/25 02:26:26;;;;;;;;;2.00;2.00;;;;;;;;5039931;28;45229;-76
2022/07/25 02:28:51;;;;;;;;;2.00;2.00;;;;;;;;5039345;28;47232;-74
2022/07/25 02:31:16;;;;;;;;;1.67;1.67;;;;;;;;5039506;28;45219;-74
2022/07/25 02:33:42;;;;;;;;;2.00;0.67;;;;;;;;5040007;28;45393;-75
2022/07/25 02:36:08;;;;;;;;;2.33;2.33;;;;;;;;5039817;28;45441;-74
2022/07/25 02:38:33;;;;;;;;;0.67;0.67;;;;;;;;5039467;28;45451;-74
2022/07/25 02:40:58;;;;;;;;;3.00;1.67;;;;;;;;5039215;28;45410;-75
2022/07/25 02:43:23;;;;;;;;;1.00;1.00;;;;;;;;5039548;28;45328;-74
2022/07/25 02:45:49;;;;;;;;;1.67;1.67;;;;;;;;5039734;28;45349;-75
2022/07/25 02:48:14;;;;;;;;;2.00;1.00;;;;;;;;5039278;28;46323;-75
2022/07/25 02:50:39;;;;;;;;;1.00;1.00;;;;;;;;5039095;28;45471;-74
2022/07/25 02:53:04;;;;;;;;;3.33;1.00;;;;;;;;5039175;28;45338;-74
2022/07/25 02:55:30;;;;;;;;;3.00;2.00;;;;;;;;5039372;28;45320;-74
2022/07/25 02:57:55;;;;;;;;;3.00;1.00;;;;;;;;5039262;28;45409;-75
2022/07/25 03:00:20;;;;;;;;;1.00;1.00;;;;;;;;5039021;28;45215;-74
2022/07/25 03:02:46;;;;;;;;;2.00;2.00;;;;;;;;5039088;28;45385;-74
2022/07/25 03:05:13;;;;;;;;;2.67;1.00;;;;;;;;5039125;28;45322;-75
2022/07/25 03:07:39;;;;;;;;;1.00;1.00;;;;;;;;5038922;28;47414;-74
2022/07/25 03:10:05;;;;;;;;;3.33;1.00;;;;;;;;5038938;28;45468;-75
2022/07/25 03:12:31;;;;;;;;;3.00;1.00;;;;;;;;5039025;28;45311;-74
2022/07/25 03:14:57;;;;;;;;;12.00;8.33;;;;;;;;5039117;28;45317;-76
2022/07/25 03:17:22;;;;;;;;;1.33;1.33;;;;;;;;5038551;28;46486;-75
2022/07/25 03:19:47;;;;;;;;;2.00;2.00;;;;;;;;5038698;28;45409;-73
2022/07/25 03:22:13;;;;;;;;;2.33;1.00;;;;;;;;5038995;28;45364;-74
2022/07/25 03:24:38;;;;;;;;;1.00;1.00;;;;;;;;5039067;28;45290;-75
2022/07/25 03:27:03;;;;;;;;;3.00;1.33;;;;;;;;5038803;28;46535;-73
2022/07/25 03:29:28;;;;;;;;;2.00;2.00;;;;;;;;5038611;28;45370;-75
2022/07/25 03:31:54;;;;;;;;;3.00;3.00;;;;;;;;5038833;28;45414;-75
2022/07/25 03:34:20;;;;;;;;;2.00;2.00;;;;;;;;5038837;28;45513;-75
2022/07/25 03:36:45;;;;;;;;;1.00;1.00;;;;;;;;5038441;28;46181;-76
2022/07/25 03:39:10;;;;;;;;;1.00;1.00;;;;;;;;5038572;28;45381;-74
2022/07/25 03:41:35;;;;;;;;;3.00;3.00;;;;;;;;5038647;28;45432;-76
2022/07/25 03:44:00;;;;;;;;;1.00;1.00;;;;;;;;5038906;28;45250;-74
2022/07/25 03:46:26;;;;;;;;;2.00;2.00;;;;;;;;5038345;28;45342;-75
2022/07/25 03:48:51;;;;;;;;;1.00;1.00;;;;;;;;5038220;28;45352;-75
2022/07/25 03:51:16;;;;;;;;;2.00;1.00;;;;;;;;5038583;28;45396;-75
2022/07/25 03:56:25;;;;;;;;;3.00;1.00;;;;;;;;5038215;28;45661;-75
2022/07/25 03:58:50;;;;;;;;;1.00;1.00;;;;;;;;5038074;28;45399;-76
2022/07/25 04:01:16;;;;;;;;;1.00;1.00;;;;;;;;5037601;28;45240;-75
2022/07/25 04:03:41;;;;;;;;;1.00;1.00;;;;;;;;5038224;28;45418;-74
2022/07/25 04:06:06;;;;;;;;;2.00;2.00;;;;;;;;5037987;28;46626;-76
2022/07/25 04:08:31;;;;;;;;;2.00;2.00;;;;;;;;5038122;28;45347;-76
2022/07/25 04:10:57;;;;;;;;;3.00;2.00;;;;;;;;5038277;28;45238;-74
2022/07/25 04:13:22;;;;;;;;;2.67;2.67;;;;;;;;5038299;28;45198;-75
2022/07/25 04:15:47;;;;;;;;;2.00;1.33;;;;;;;;5038000;28;45449;-74
2022/07/25 04:18:12;;;;;;;;;2.00;2.00;;;;;;;;5037756;28;45357;-74
2022/07/25 04:20:38;;;;;;;;;2.67;2.67;;;;;;;;5038064;28;45454;-76
2022/07/25 04:23:03;;;;;;;;;3.00;3.00;;;;;;;;5038382;28;45344;-73
2022/07/25 04:25:29;;;;;;;;;2.00;2.00;;;;;;;;5037680;28;46433;-74
2022/07/25 04:27:55;;;;;;;;;2.00;2.00;;;;;;;;5037909;28;45412;-74
2022/07/25 04:30:20;;;;;;;;;2.67;2.67;;;;;;;;5037823;28;45464;-74
2022/07/25 04:32:45;;;;;;;;;1.00;1.00;;;;;;;;5038044;28;45355;-75
2022/07/25 04:35:10;;;;;;;;;5.00;3.00;;;;;;;;5037764;28;47059;-74
2022/07/25 04:37:36;;;;;;;;;2.00;2.00;;;;;;;;5037356;28;45293;-74
2022/07/25 04:40:02;;;;;;;;;3.00;1.33;;;;;;;;5037795;28;45306;-74
2022/07/25 04:42:27;;;;;;;;;1.00;1.00;;;;;;;;5037743;28;45242;-75
2022/07/25 04:44:53;;;;;;;;;4.00;2.33;;;;;;;;5037501;28;46340;-75
2022/07/25 04:47:18;;;;;;;;;2.67;2.00;;;;;;;;5037546;28;45329;-74
2022/07/25 04:49:43;;;;;;;;;3.33;2.67;;;;;;;;5037622;28;45992;-74
2022/07/25 04:52:08;;;;;;;;;4.00;2.00;;;;;;;;5019688;28;45504;-74
2022/07/25 04:54:33;;;;;;;;;1.67;1.67;;;;;;;;5037369;28;46489;-74
2022/07/25 04:56:59;;;;;;;;;1.67;1.67;;;;;;;;5037477;28;45502;-75
2022/07/25 04:59:24;;;;;;;;;4.00;3.00;;;;;;;;5037479;28;45393;-75
2022/07/25 05:01:49;;;;;;;;;6.67;3.67;;;;;;;;5037684;28;45345;-76
2022/07/25 05:04:14;;;;;;;;;2.00;2.00;;;;;;;;5037224;28;45402;-76
2022/07/25 05:06:40;;;;;;;;;2.67;2.00;;;;;;;;5037256;28;45307;-76
2022/07/25 05:09:05;;;;;;;;;3.00;3.00;;;;;;;;5037401;28;45524;-74
2022/07/25 05:11:30;;;;;;;;;4.00;4.00;;;;;;;;5037743;28;45219;-75
2022/07/25 05:13:55;;;;;;;;;4.00;3.00;;;;;;;;5038845;28;46447;-74
2022/07/25 05:16:20;;;;;;;;;2.33;2.33;;;;;;;;5040901;28;45330;-74
2022/07/25 05:18:46;;;;;;;;;3.00;3.00;;;;;;;;5040941;28;45282;-75
2022/07/25 05:21:11;;;;;;;;;6.00;4.00;;;;;;;;5040793;28;45227;-75
2022/07/25 05:23:36;;;;;;;;;3.33;3.00;;;;;;;;5040799;28;46205;-74
2022/07/25 05:26:02;;;;;;;;;4.00;3.00;;;;;;;;5040508;28;45366;-75
2022/07/25 05:28:27;;;;;;;;;3.00;3.00;;;;;;;;5040688;28;45273;-75
2022/07/25 05:30:52;;;;;;;;;4.33;4.00;;;;;;;;5040902;28;45378;-75
2022/07/25 05:33:17;;;;;;;;;4.00;3.00;;;;;;;;5040518;28;47173;-74
2022/07/25 05:35:43;;;;;;;;;8.00;3.00;;;;;;;;5040559;28;45452;-75
2022/07/25 05:38:08;;;;;;;;;3.00;3.00;;;;;;;;5040546;28;45208;-74
2022/07/25 05:40:33;;;;;;;;;4.00;3.33;;;;;;;;5040557;28;45556;-75
2022/07/25 05:42:58;;;;;;;;;4.33;2.67;;;;;;;;5039470;28;45274;-74
2022/07/25 05:45:24;;;;;;;;;6.67;5.33;;;;;;;;5040382;28;45314;-74
2022/07/25 05:47:49;;;;;;;;;6.33;4.00;;;;;;;;5040360;28;45289;-74
2022/07/25 05:50:14;;;;;;;;;4.00;3.33;;;;;;;;5040487;28;45149;-73
2022/07/25 05:52:39;;;;;;;;;2.33;2.33;;;;;;;;5040212;28;45461;-74
2022/07/25 05:55:05;;;;;;;;;2.67;2.00;;;;;;;;5040337;28;45648;-74
2022/07/25 05:57:30;;;;;;;;;1.67;1.67;;;;;;;;5040590;28;45380;-73
2022/07/25 05:59:55;;;;;;;;;3.00;3.00;;;;;;;;5040171;28;45461;-75
2022/07/25 06:02:20;;;;;;;;;4.00;2.33;;;;;;;;5039512;28;45574;-74
2022/07/25 06:04:46;;;;;;;;;1.00;1.00;;;;;;;;5040170;28;45276;-74
2022/07/25 06:07:11;;;;;;;;;2.00;2.00;;;;;;;;5040097;28;45357;-75
2022/07/25 06:09:37;;;;;;;;;2.33;2.00;;;;;;;;5040261;28;45329;-75
2022/07/25 06:12:02;;;;;;;;;2.00;2.00;;;;;;;;5039796;28;46478;-75
2022/07/25 06:14:28;;;;;;;;;1.00;1.00;;;;;;;;5039887;28;45436;-73
2022/07/25 06:16:53;;;;;;;;;4.00;1.00;;;;;;;;5040070;28;45433;-74
2022/07/25 06:19:18;;;;;;;;;3.00;2.00;;;;;;;;5039920;28;45247;-74
2022/07/25 06:21:43;;;;;;;;;1.00;1.00;;;;;;;;5039613;28;46128;-74
2022/07/25 06:24:09;;;;;;;;;2.00;2.00;;;;;;;;5039264;28;45301;-72
2022/07/25 06:26:36;;;;;;;;;3.67;2.00;;;;;;;;5039839;28;45401;-74
2022/07/25 06:29:01;;;;;;;;;3.67;2.33;;;;;;;;5040086;28;45159;-73
2022/07/25 06:31:26;;;;;;;;;4.00;2.00;;;;;;;;5039472;28;45391;-72
2022/07/25 06:33:52;;;;;;;;;0.67;0.67;;;;;;;;5039870;28;45321;-73
2022/07/25 06:36:17;;;;;;;;;1.33;1.00;;;;;;;;5039656;28;45493;-72
2022/07/25 06:38:42;;;;;;;;;1.00;1.00;;;;;;;;5039809;28;45237;-73
2022/07/25 06:41:12;;;;;;;;;1.00;1.00;;;;;;;;5039372;28;47161;-73
2022/07/25 06:43:37;;;;;;;;;2.33;2.33;;;;;;;;5039429;28;45750;-73
2022/07/25 06:46:02;;;;;;;;;2.00;2.00;;;;;;;;5039606;28;45393;-72
2022/07/25 06:48:29;;;;;;;;;1.00;1.00;;;;;;;;5039611;28;45444;-72
2022/07/25 06:50:54;;;;;;;;;3.33;2.00;;;;;;;;5039183;28;46961;-74
2022/07/25 06:53:19;;;;;;;;;1.00;1.00;;;;;;;;5039103;28;45340;-72
2022/07/25 06:55:44;;;;;;;;;1.00;1.00;;;;;;;;5039445;28;45366;-73
2022/07/25 06:58:10;;;;;;;;;4.00;2.00;;;;;;;;5039743;28;45282;-72
2022/07/25 07:00:35;;;;;;;;;3.00;3.00;;;;;;;;5038999;28;45354;-73
2022/07/25 07:03:02;;;;;;;;;1.00;1.00;;;;;;;;5038844;28;45425;-73
2022/07/25 07:05:31;;;;;;;;;1.00;1.00;;;;;;;;5039312;28;45425;-73
2022/07/25 07:07:57;;;;;;;;;2.00;2.00;;;;;;;;5039257;28;45408;-73
2022/07/25 07:10:22;;;;;;;;;1.00;1.00;;;;;;;;5038816;28;45480;-74
2022/07/25 07:12:48;;;;;;;;;4.00;2.00;;;;;;;;5039020;28;45300;-73
2022/07/25 07:15:14;;;;;;;;;3.00;2.00;;;;;;;;5039161;28;45334;-73
2022/07/25 07:17:40;;;;;;;;;5.00;1.67;;;;;;;;5038982;28;45461;-75
2022/07/25 07:20:05;;;;;;;;;3.33;1.00;;;;;;;;5038894;28;45353;-73
2022/07/25 07:22:31;;;;;;;;;3.00;1.33;;;;;;;;5038821;28;45473;-72
2022/07/25 07:24:56;;;;;;;;;2.00;2.00;;;;;;;;5038772;28;45262;-73
2022/07/25 07:27:23;;;;;;;;;2.67;2.67;;;;;;;;5039088;28;45404;-73
2022/07/25 07:29:48;;;;;;;;;2.00;2.00;;;;;;;;5038660;28;46177;-74
2022/07/25 07:32:14;;;;;;;;;5.00;2.33;;;;;;;;5038726;28;45460;-73
2022/07/25 07:34:39;;;;;;;;;3.00;2.33;;;;;;;;5038863;28;45302;-75
2022/07/25 07:37:04;;;;;;;;;4.00;2.00;;;;;;;;5037678;28;45336;-73
2022/07/25 07:39:30;;;;;;;;;2.33;2.33;;;;;;;;5038390;28;45487;-73
2022/07/25 07:41:55;;;;;;;;;5.00;4.67;;;;;;;;5038390;28;45286;-73
2022/07/25 07:44:20;;;;;;;;;4.00;4.00;;;;;;;;5038670;28;45432;-74
2022/07/25 07:46:45;;;;;;;;;3.00;2.67;;;;;;;;5038771;28;45586;-73
2022/07/25 07:49:11;;;;;;;;;3.00;3.00;;;;;;;;5038234;28;46583;-74
2022/07/25 07:51:36;;;;;;;;;3.00;2.00;;;;;;;;5037727;28;45243;-73
2022/07/25 07:56:45;;;;;;;;;3.67;2.00;;;;;;;;5038536;28;45390;-73
2022/07/25 07:59:10;;;;;;;;;4.33;3.00;;;;;;;;5037952;28;47009;-74
2022/07/25 08:01:35;;;;;;;;;3.33;3.00;;;;;;;;5038376;28;45410;-74
2022/07/25 08:04:01;;;;;;;;;2.67;2.67;;;;;;;;5038139;28;45831;-73
2022/07/25 08:06:26;;;;;;;;;2.33;2.00;;;;;;;;5038461;28;45380;-72
2022/07/25 08:08:52;;;;;;;;;3.33;2.00;;;;;;;;5037987;28;47140;-73
2022/07/25 08:11:17;;;;;;;;;1.67;1.67;;;;;;;;5038141;28;45270;-73
2022/07/25 08:13:42;;;;;;;;;3.00;3.00;;;;;;;;5038455;28;45235;-73
2022/07/25 08:16:07;;;;;;;;;5.67;3.00;;;;;;;;5038167;28;45440;-72
2022/07/25 08:18:32;;;;;;;;;4.67;3.67;;;;;;;;5037616;28;46635;-72
2022/07/25 08:20:59;;;;;;;;;7.33;3.00;;;;;;;;5037875;28;45424;-74
2022/07/25 08:23:26;;;;;;;;;4.00;3.33;;;;;;;;5037749;28;45266;-73
2022/07/25 08:25:51;;;;;;;;;5.00;3.00;;;;;;;;5037882;28;45254;-73
2022/07/25 08:28:17;;;;;;;;;4.33;3.00;;;;;;;;5036585;28;45237;-72
2022/07/25 08:30:42;;;;;;;;;2.33;2.33;;;;;;;;5037893;28;45254;-73
2022/07/25 08:33:09;;;;;;;;;3.67;1.67;;;;;;;;5037767;28;45334;-73
2022/07/25 08:35:35;;;;;;;;;4.67;2.67;;;;;;;;5038003;28;45389;-73
2022/07/25 08:38:01;;;;;;;;;5.00;3.33;;;;;;;;5037453;28;46331;-73
2022/07/25 08:40:27;;;;;;;;;2.67;2.33;;;;;;;;5037432;28;45370;-73
2022/07/25 08:42:57;;;;;;;;;3.33;3.00;;;;;;;;5037659;28;45370;-73
2022/07/25 08:45:23;;;;;;;;;5.33;4.33;;;;;;;;5037861;28;45310;-74
2022/07/25 08:47:50;;;;;;;;;3.00;2.33;;;;;;;;5037157;28;45922;-73
2022/07/25 08:50:16;;;;;;;;;3.67;1.33;;;;;;;;5037525;28;45370;-73
2022/07/25 08:52:43;;;;;;;;;2.00;2.00;;;;;;;;5037302;28;45437;-74
2022/07/25 08:55:12;;;;;;;;;5.00;3.00;;;;;;;;5037575;28;45337;-74
2022/07/25 08:57:40;;;;;;;;;4.33;2.00;;;;;;;;5037262;28;46094;-75
2022/07/25 09:00:06;;;;;;;;;5.67;3.00;;;;;;;;5037154;28;45210;-74
2022/07/25 09:02:31;;;;;;;;;4.00;2.67;;;;;;;;5037196;28;45463;-73
2022/07/25 09:04:57;;;;;;;;;3.50;3.50;;;;;;;;5037373;28;45306;-74
2022/07/25 09:07:37;;;;;;;;;3.67;3.67;;;;;;;;5037051;28;46236;-74
2022/07/25 09:10:15;;;;;;;;;4.00;3.00;;;;;;;;5037183;28;45247;-74
2022/07/25 09:12:41;;;;;;;;;3.67;2.00;;;;;;;;5037402;28;45383;-73
2022/07/25 09:15:07;;;;;;;;;1.67;1.33;;;;;;;;5037175;28;45325;-74
2022/07/25 09:17:33;;;;;;;;;6.33;5.33;;;;;;;;5037038;28;45509;-73
2022/07/25 09:19:58;;;;;;;;;4.00;3.00;;;;;;;;5037012;28;45382;-71
2022/07/25 09:22:23;;;;;;;;;4.33;3.00;;;;;;;;5037149;28;45233;-73
2022/07/25 09:24:49;;;;;;;;;3.33;3.33;;;;;;;;5037553;28;45380;-74
2022/07/25 09:27:16;;;;;;;;;6.00;4.00;;;;;;;;5036605;28;45349;-73
2022/07/25 09:29:42;;;;;;;;;2.67;2.67;;;;;;;;5036977;28;45358;-74
2022/07/25 09:32:25;;;;;;;;;3.00;3.00;;;;;;;;5019174;28;45408;-72
2022/07/25 09:34:50;;;;;;;;;0.67;0.00;;;;;;;;5037128;28;45382;-74
2022/07/25 09:37:17;;;;;;;;;2.00;2.00;;;;;;;;5036607;28;47429;-74
2022/07/25 09:39:44;;;;;;;;;3.00;3.00;;;;;;;;5036048;28;45426;-72
2022/07/25 09:42:15;;;;;;;;;3.67;3.00;;;;;;;;5036861;28;45275;-73
2022/07/25 09:44:40;;;;;;;;;2.00;2.00;;;;;;;;5036906;28;45428;-73
2022/07/25 09:47:12;;;;;;;;;3.00;3.00;;;;;;;;5036863;28;46069;-73
2022/07/25 09:49:39;;;;;;;;;3.33;2.00;;;;;;;;5036624;28;45433;-74
2022/07/25 09:52:05;;;;;;;;;10.00;8.00;;;;;;;;5036717;28;45393;-73
2022/07/25 09:54:31;;;;;;;;;4.33;3.00;;;;;;;;5036980;28;45455;-72
2022/07/25 09:56:56;;;;;;;;;3.00;2.67;;;;;;;;5036582;28;47234;-73
2022/07/25 09:59:21;;;;;;;;;3.33;2.00;;;;;;;;5037206;28;45493;-74
2022/07/25 10:01:52;;;;;;;;;3.00;2.00;;;;;;;;5040086;28;45409;-73
2022/07/25 10:04:29;;;;;;;;;3.00;3.00;;;;;;;;5022036;28;45427;-75
2022/07/25 10:07:15;;;;;;;;;3.00;3.00;;;;;;;;5039898;28;45472;-73
2022/07/25 10:09:47;;;;;;;;;3.33;3.00;;;;;;;;5038891;28;46081;-74
2022/07/25 10:12:17;;;;;;;;;5.00;3.00;;;;;;;;5040038;28;45420;-74
2022/07/25 10:14:42;;;;;;;;;2.67;2.67;;;;;;;;5040196;28;45284;-74
2022/07/25 10:17:08;;;;;;;;;5.67;2.00;;;;;;;;5039527;28;46850;-74
2022/07/25 10:19:49;;;;;;;;;2.00;2.00;;;;;;;;5039598;28;45417;-74
2022/07/25 10:22:14;;;;;;;;;1.00;1.00;;;;;;;;5039935;28;45392;-73
2022/07/25 10:24:43;;;;;;;;;2.33;2.33;;;;;;;;5039796;28;45329;-74
2022/07/25 10:27:10;;;;;;;;;4.00;3.00;;;;;;;;5038930;28;45324;-73
2022/07/25 10:29:36;;;;;;;;;3.33;2.00;;;;;;;;5039473;28;45475;-75
2022/07/25 10:32:05;;;;;;;;;2.33;2.33;;;;;;;;5039749;28;45427;-74
2022/07/25 10:34:30;;;;;;;;;2.67;2.00;;;;;;;;5039795;28;45242;-74
2022/07/25 10:36:55;;;;;;;;;2.00;2.00;;;;;;;;5039275;28;46317;-74
2022/07/25 10:39:22;;;;;;;;;1.67;1.33;;;;;;;;5039386;28;45358;-74
2022/07/25 10:41:59;;;;;;;;;15.67;15.00;;;;;;;;5039480;28;45366;-74
2022/07/25 10:44:26;;;;;;;;;1.00;1.00;;;;;;;;5039717;28;45427;-74
2022/07/25 10:47:03;;;;;;;;;3.00;3.00;;;;;;;;5039325;28;45622;-74
2022/07/25 10:49:34;;;;;;;;;4.00;2.00;;;;;;;;5039310;28;45407;-74
2022/07/25 10:52:02;;;;;;;;;3.00;2.00;;;;;;;;5039400;28;45398;-75
2022/07/25 10:54:31;;;;;;;;;2.00;2.00;;;;;;;;5039393;28;45543;-73
2022/07/25 10:56:58;;;;;;;;;4.00;2.00;;;;;;;;5039365;28;45783;-74
2022/07/25 10:59:27;;;;;;;;;3.00;2.00;;;;;;;;5039140;28;45247;-74
2022/07/25 11:01:52;;;;;;;;;1.33;1.33;;;;;;;;5039317;28;45409;-74
2022/07/25 11:04:18;;;;;;;;;4.00;4.00;;;;;;;;5039212;28;45357;-73
2022/07/25 11:06:43;;;;;;;;;7.00;7.00;;;;;;;;5038947;28;46715;-72
2022/07/25 11:09:18;;;;;;;;;6.00;5.00;;;;;;;;5038985;28;45325;-74
2022/07/25 11:11:47;;;;;;;;;8.67;7.33;;;;;;;;5038959;28;45401;-73
2022/07/25 11:14:32;;;;;;;;;14.33;14.00;;;;;;;;5039036;28;45413;-73
2022/07/25 11:17:18;;;;;;;;;16.33;14.67;;;;;;;;5038581;28;45447;-74
2022/07/25 11:19:52;;;;;;;;;10.00;8.33;;;;;;;;5038624;28;45458;-74
2022/07/25 11:22:17;;;;;;;;;5.33;2.67;;;;;;;;5038803;28;45467;-74
2022/07/25 11:24:44;;;;;;;;;2.33;1.00;;;;;;;;5039008;28;45156;-74
2022/07/25 11:27:10;;;;;;;;;3.00;1.00;;;;;;;;5038778;28;45428;-73
2022/07/25 11:29:39;;;;;;;;;2.00;1.67;;;;;;;;5038614;28;45437;-73
2022/07/25 11:32:05;;;;;;;;;4.00;2.00;;;;;;;;5038807;28;45299;-73
2022/07/25 11:34:33;;;;;;;;;3.33;3.33;;;;;;;;5038934;28;45402;-73
2022/07/25 11:36:59;;;;;;;;;7.67;3.00;;;;;;;;5038353;28;46781;-74
2022/07/25 11:39:25;;;;;;;;;2.67;2.00;;;;;;;;5038183;28;45425;-73
2022/07/25 11:41:57;;;;;;;;;3.00;2.00;;;;;;;;5038472;28;45355;-74
2022/07/25 11:44:33;;;;;;;;;4.33;3.00;;;;;;;;5038779;28;45326;-74
2022/07/25 11:46:58;;;;;;;;;2.00;2.00;;;;;;;;5038276;28;46253;-74
2022/07/25 11:49:23;;;;;;;;;1.33;1.00;;;;;;;;5038533;28;45393;-74
2022/07/25 11:51:49;;;;;;;;;1.00;0.00;;;;;;;;5038459;28;45593;-73
2022/07/25 11:54:15;;;;;;;;;5.00;1.00;;;;;;;;5038628;28;45195;-73
2022/07/25 11:56:42;;;;;;;;;1.00;1.00;;;;;;;;5038218;28;46665;-73
2022/07/25 11:59:08;;;;;;;;;3.67;1.00;;;;;;;;5038147;28;45271;-73
2022/07/25 12:01:37;;;;;;;;;4.33;1.00;;;;;;;;5038379;28;45267;-73
2022/07/25 12:04:12;;;;;;;;;1.00;1.00;;;;;;;;5038180;28;45468;-74
2022/07/25 12:06:38;;;;;;;;;0.67;0.00;;;;;;;;5037975;28;46362;-74
2022/07/25 12:09:10;;;;;;;;;1.00;1.00;;;;;;;;5038123;28;45301;-73
2022/07/25 12:11:37;;;;;;;;;1.00;1.00;;;;;;;;5038184;28;45425;-72
2022/07/25 12:14:03;;;;;;;;;0.00;0.00;;;;;;;;5038217;28;45334;-74
2022/07/25 12:16:29;;;;;;;;;1.33;1.00;;;;;;;;5037862;28;45337;-74
2022/07/25 12:18:54;;;;;;;;;1.33;0.00;;;;;;;;5037858;28;45372;-74
2022/07/25 12:21:19;;;;;;;;;0.33;0.33;;;;;;;;5038083;28;45219;-73
2022/07/25 12:23:44;;;;;;;;;2.00;1.00;;;;;;;;5037507;28;45341;-73
2022/07/25 12:26:12;;;;;;;;;1.00;0.00;;;;;;;;5037769;28;45424;-73
2022/07/25 12:28:37;;;;;;;;;4.00;1.00;;;;;;;;5037983;28;45314;-73
2022/07/25 12:31:03;;;;;;;;;2.33;2.00;;;;;;;;5037954;28;45479;-73
2022/07/25 12:33:29;;;;;;;;;0.67;0.67;;;;;;;;5038122;28;45287;-73
2022/07/25 12:35:54;;;;;;;;;0.33;0.33;;;;;;;;5037500;28;47151;-74
2022/07/25 12:38:19;;;;;;;;;1.33;1.33;;;;;;;;5037540;28;45310;-72
2022/07/25 12:40:44;;;;;;;;;1.00;1.00;;;;;;;;5037739;28;45258;-73
2022/07/25 12:43:10;;;;;;;;;2.33;1.00;;;;;;;;5038020;28;45295;-73
2022/07/25 12:45:35;;;;;;;;;2.00;0.00;;;;;;;;5037588;28;45496;-74
2022/07/25 12:48:00;;;;;;;;;0.00;0.00;;;;;;;;5037566;28;45366;-73
2022/07/25 12:50:25;;;;;;;;;0.67;0.00;;;;;;;;5037923;28;45354;-73
2022/07/25 12:52:51;;;;;;;;;0.00;0.00;;;;;;;;5037874;28;45565;-73
2022/07/25 12:55:17;;;;;;;;;0.33;0.33;;;;;;;;5037126;28;46404;-74
2022/07/25 12:57:42;;;;;;;;;1.00;1.00;;;;;;;;5037435;28;45407;-74
2022/07/25 13:00:09;;;;;;;;;1.67;0.00;;;;;;;;5037541;28;45399;-74
2022/07/25 13:02:35;;;;;;;;;2.67;0.00;;;;;;;;5037488;28;45429;-74
2022/07/25 13:05:00;;;;;;;;;1.00;0.33;;;;;;;;5037029;28;46559;-72
2022/07/25 13:07:25;;;;;;;;;3.00;0.00;;;;;;;;5037333;28;45391;-74
2022/07/25 13:09:51;;;;;;;;;0.00;0.00;;;;;;;;5037628;28;45275;-74
2022/07/25 13:12:16;;;;;;;;;0.00;0.00;;;;;;;;5037172;28;46131;-74
2022/07/25 13:14:41;;;;;;;;;1.00;0.00;;;;;;;;5037308;28;45493;-74
2022/07/25 13:17:06;;;;;;;;;0.00;0.00;;;;;;;;5037143;28;45420;-73
2022/07/25 13:19:32;;;;;;;;;0.00;0.00;;;;;;;;5019321;28;45409;-73
2022/07/25 13:21:57;;;;;;;;;0.00;0.00;;;;;;;;5037574;28;45484;-75
2022/07/25 13:24:23;;;;;;;;;0.00;0.00;;;;;;;;5036898;28;46298;-73
2022/07/25 13:26:48;;;;;;;;;1.33;0.00;;;;;;;;5037205;28;45310;-75
2022/07/25 13:29:13;;;;;;;;;0.33;0.33;;;;;;;;5037175;28;45444;-74
2022/07/25 13:31:42;;;;;;;;;0.00;0.00;;;;;;;;5037269;28;45299;-74
2022/07/25 13:34:08;;;;;;;;;1.00;0.00;;;;;;;;5037409;28;46512;-74
2022/07/25 13:36:34;;;;;;;;;3.67;0.67;;;;;;;;5040474;28;45270;-73
2022/07/25 13:38:59;;;;;;;;;1.00;0.00;;;;;;;;5040704;28;45419;-73
2022/07/25 13:41:24;;;;;;;;;0.00;0.00;;;;;;;;5040676;28;45474;-74
2022/07/25 13:43:50;;;;;;;;;1.00;0.67;;;;;;;;5040198;28;45441;-72
2022/07/25 13:46:15;;;;;;;;;1.33;1.33;;;;;;;;5040347;28;45456;-75
2022/07/25 13:48:40;;;;;;;;;0.00;0.00;;;;;;;;5040496;28;45609;-73
2022/07/25 13:51:06;;;;;;;;;3.00;0.00;;;;;;;;5040638;28;45314;-72
2022/07/25 13:53:31;;;;;;;;;0.00;0.00;;;;;;;;5040050;28;47036;-74
2022/07/25 13:55:57;;;;;;;;;1.00;1.00;;;;;;;;5040346;28;45492;-73
2022/07/25 13:58:22;;;;;;;;;0.00;0.00;;;;;;;;5040241;28;45383;-74
2022/07/25 14:00:48;;;;;;;;;1.00;0.00;;;;;;;;5040289;28;45299;-73
2022/07/25 14:03:13;;;;;;;;;0.00;0.00;;;;;;;;5039639;28;46649;-74
2022/07/25 14:05:38;;;;;;;;;3.00;0.00;;;;;;;;5040082;28;45369;-73
2022/07/25 14:08:04;;;;;;;;;0.00;0.00;;;;;;;;5040040;28;45241;-73
2022/07/25 14:10:29;;;;;;;;;3.33;0.00;;;;;;;;5040271;28;45416;-73
2022/07/25 14:12:54;;;;;;;;;2.33;0.67;;;;;;;;5039877;28;45572;-72
2022/07/25 14:15:20;;;;;;;;;0.00;0.00;;;;;;;;5039674;28;45492;-73
2022/07/25 14:17:45;;;;;;;;;2.00;0.00;;;;;;;;5039994;28;45332;-73
2022/07/25 14:20:11;;;;;;;;;0.67;0.00;;;;;;;;5039731;28;45308;-73
2022/07/25 14:22:38;;;;;;;;;3.00;0.00;;;;;;;;5039939;28;45422;-73
2022/07/25 14:25:04;;;;;;;;;0.00;0.00;;;;;;;;5039576;28;45314;-74
2022/07/25 14:27:29;;;;;;;;;15.33;11.00;;;;;;;;5039518;28;45432;-75
2022/07/25 14:29:54;;;;;;;;;2.00;0.00;;;;;;;;5039984;28;45441;-73
2022/07/25 14:32:19;;;;;;;;;1.00;0.67;;;;;;;;5039528;28;46425;-74
2022/07/25 14:34:45;;;;;;;;;0.00;0.00;;;;;;;;5039588;28;45301;-74
2022/07/25 14:37:10;;;;;;;;;0.00;0.00;;;;;;;;5039721;28;45436;-73
2022/07/25 14:39:36;;;;;;;;;0.00;0.00;;;;;;;;5021641;28;45279;-73